Time;durP1;ratioP1;P1;durP2;ratioP2;P2;SDS_P1;SDS_P2;PMS_P1;PMS_P2;Temp;Humidity;BMP_temperature;BMP_pressure;BME280_temperature;BME280_humidity;BME280_pressure;Samples;Min_cycle;Max_cycle;Signal;HPM_P1;HPM_P2
2022/06/03 00:04:32;;;;;;;1.75;1.30;;;16.10;81.70;;;;;;10543881;28;20032;-63
2022/06/03 00:10:04;;;;;;;4.50;1.30;;;16.10;81.70;;;;;;10543693;28;20540;-63
2022/06/03 00:15:20;;;;;;;2.00;1.48;;;16.10;81.70;;;;;;10543604;28;20040;-61
2022/06/03 00:21:02;;;;;;;2.88;1.35;;;16.00;81.70;;;;;;10543084;28;20042;-61
2022/06/03 00:26:23;;;;;;;1.50;1.20;;;16.00;81.80;;;;;;10516490;28;20051;-60
2022/06/03 00:31:55;;;;;;;2.53;1.58;;;16.00;81.70;;;;;;10542281;28;20028;-61
2022/06/03 00:36:56;;;;;;;1.42;1.33;;;15.90;81.70;;;;;;10542422;28;20039;-60
2022/06/03 00:42:07;;;;;;;1.75;1.33;;;15.90;81.70;;;;;;10542178;28;20051;-62
2022/06/03 00:47:36;;;;;;;1.52;1.40;;;15.90;81.70;;;;;;10542627;28;20036;-58
2022/06/03 00:52:39;;;;;;;;;;;16.00;81.80;;;;;;10542520;28;20043;-60
2022/06/03 00:58:02;;;;;;;2.60;1.25;;;15.80;81.70;;;;;;10541635;28;19950;-61
2022/06/03 01:03:21;;;;;;;1.60;1.40;;;15.80;81.70;;;;;;10542015;28;20081;-63
2022/06/03 01:08:45;;;;;;;1.40;1.30;;;15.80;81.70;;;;;;10539591;28;20131;-62
2022/06/03 01:14:14;;;;;;;1.23;1.05;;;15.80;81.70;;;;;;10541085;28;20153;-64
2022/06/03 01:19:27;;;;;;;1.33;1.20;;;15.80;81.80;;;;;;10540850;28;20024;-64
2022/06/03 01:25:01;;;;;;;2.42;1.23;;;15.80;81.80;;;;;;10540771;28;20091;-64
2022/06/03 01:30:06;;;;;;;2.50;1.48;;;15.70;81.70;;;;;;10540658;28;20166;-61
2022/06/03 01:35:16;;;;;;;1.65;1.33;;;15.70;81.80;;;;;;10540186;28;20516;-59
2022/06/03 01:40:37;;;;;;;2.10;1.13;;;15.70;81.80;;;;;;10539932;28;20036;-63
2022/06/03 01:45:56;;;;;;;3.75;1.30;;;15.60;81.80;;;;;;10539993;28;20065;-59
2022/06/03 01:51:02;;;;;;;1.38;1.20;;;15.60;81.80;;;;;;10539800;28;20044;-64
2022/06/03 01:56:30;;;;;;;1.58;1.25;;;15.60;81.80;;;;;;10539392;28;20035;-60
2022/06/03 02:02:03;;;;;;;2.65;1.38;;;15.50;81.80;;;;;;10539438;28;20126;-59
2022/06/03 02:07:15;;;;;;;1.48;1.08;;;15.50;81.90;;;;;;10538757;28;20063;-64
2022/06/03 02:12:40;;;;;;;2.38;1.25;;;15.50;81.90;;;;;;10538958;28;20446;-59
2022/06/03 02:17:59;;;;;;;2.42;1.30;;;15.50;81.90;;;;;;10538154;28;20027;-64
2022/06/03 02:23:21;;;;;;;2.33;1.30;;;15.40;81.80;;;;;;10538346;28;20040;-64
2022/06/03 02:28:50;;;;;;;1.88;1.20;;;15.40;81.90;;;;;;10538288;28;20044;-60
2022/06/03 02:34:09;;;;;;;;;;;15.40;81.90;;;;;;10538457;28;20122;-63
2022/06/03 02:39:25;;;;;;;3.58;1.73;;;15.30;81.90;;;;;;10537765;28;19970;-61
2022/06/03 02:45:01;;;;;;;1.52;1.38;;;15.30;81.80;;;;;;10537301;28;20036;-62
2022/06/03 02:50:37;;;;;;;2.15;1.45;;;15.30;81.90;;;;;;10536966;28;20566;-64
2022/06/03 02:55:47;;;;;;;1.73;1.42;;;15.30;81.90;;;;;;10524599;28;20032;-64
2022/06/03 03:01:14;;;;;;;2.00;1.48;;;15.20;81.80;;;;;;10536831;28;20036;-59
2022/06/03 03:06:52;;;;;;;1.55;1.42;;;15.20;81.80;;;;;;10536691;28;20109;-59
2022/06/03 03:12:16;;;;;;;3.03;1.60;;;15.20;81.80;;;;;;10536974;28;20040;-64
2022/06/03 03:17:35;;;;;;;1.73;1.30;;;15.20;81.80;;;;;;10533511;28;20047;-60
2022/06/03 03:22:57;;;;;;;2.10;1.40;;;15.20;81.80;;;;;;10536447;28;20032;-64
2022/06/03 03:28:29;;;;;;;2.03;1.50;;;15.20;81.80;;;;;;10536075;28;20547;-59
2022/06/03 03:34:11;;;;;;;1.45;1.20;;;15.10;81.80;;;;;;10535446;28;20044;-61
2022/06/03 03:39:31;;;;;;;2.85;1.80;;;15.10;81.80;;;;;;10536076;28;20044;-64
2022/06/03 03:44:55;;;;;;;2.78;1.50;;;15.10;81.80;;;;;;10535615;28;20506;-61
2022/06/03 03:50:33;;;;;;;2.10;1.52;;;15.10;81.70;;;;;;10536139;28;20071;-64
2022/06/03 03:55:37;;;;;;;4.13;1.60;;;15.10;81.70;;;;;;10535997;28;20089;-62
2022/06/03 04:00:44;;;;;;;1.65;1.40;;;15.10;82.30;;;;;;10535890;28;20407;-64
2022/06/03 04:06:18;;;;;;;4.35;1.83;;;15.00;81.70;;;;;;10535190;28;20035;-62
2022/06/03 04:11:25;;;;;;;1.90;1.70;;;15.00;81.70;;;;;;10535328;28;20028;-58
2022/06/03 04:17:02;;;;;;;2.50;1.67;;;15.00;81.60;;;;;;10535493;28;20036;-63
2022/06/03 04:22:16;;;;;;;1.93;1.53;;;15.00;81.60;;;;;;10535203;28;20048;-60
2022/06/03 04:27:41;;;;;;;2.67;1.77;;;15.00;81.60;;;;;;10535194;28;20063;-62
2022/06/03 04:33:18;;;;;;;3.72;1.73;;;15.00;81.60;;;;;;10534692;28;20056;-64
2022/06/03 04:38:43;;;;;;;1.83;1.58;;;15.00;81.60;;;;;;10534681;28;20064;-59
2022/06/03 04:44:21;;;;;;;4.13;1.70;;;15.00;81.60;;;;;;10521222;28;20070;-58
2022/06/03 04:49:40;;;;;;;4.05;2.20;;;15.00;81.50;;;;;;10541694;28;20050;-59
2022/06/03 04:54:40;;;;;;;;;;;14.90;81.60;;;;;;10542657;28;20032;-58
2022/06/03 04:59:53;;;;;;;6.38;1.83;;;14.90;81.70;;;;;;10541667;28;19904;-62
2022/06/03 05:05:32;;;;;;;3.63;1.88;;;14.90;81.50;;;;;;10541676;28;20028;-65
2022/06/03 05:11:09;;;;;;;4.15;1.65;;;15.00;81.50;;;;;;10529816;28;20036;-58
2022/06/03 05:16:24;;;;;;;4.20;1.70;;;15.00;81.40;;;;;;10540854;28;20040;-64
2022/06/03 05:21:59;;;;;;;3.55;2.17;;;15.00;81.40;;;;;;10540986;28;20396;-59
2022/06/03 05:27:24;;;;;;;2.75;1.77;;;15.00;81.40;;;;;;10540461;28;20048;-65
2022/06/03 05:32:45;;;;;;;2.63;1.70;;;15.00;81.50;;;;;;10540389;28;20036;-58
2022/06/03 05:37:58;;;;;;;4.72;1.80;;;15.00;81.40;;;;;;10511412;28;20024;-60
2022/06/03 05:42:59;;;;;;;2.17;1.52;;;15.00;81.40;;;;;;10539885;28;20413;-60
2022/06/03 05:48:11;;;;;;;3.47;1.75;;;15.00;81.40;;;;;;10539637;28;20044;-64
2022/06/03 05:53:47;;;;;;;2.72;1.63;;;15.00;81.50;;;;;;10538777;28;20085;-59
2022/06/03 05:58:59;;;;;;;2.78;1.80;;;15.00;81.60;;;;;;10511976;28;20028;-61
2022/06/03 06:04:15;;;;;;;2.10;1.50;;;15.00;81.50;;;;;;10538960;28;20132;-62
2022/06/03 06:09:43;;;;;;;3.88;1.60;;;15.10;81.50;;;;;;10537818;28;20074;-60
2022/06/03 06:15:05;;;;;;;2.30;1.37;;;15.10;81.60;;;;;;10538521;28;20118;-60
2022/06/03 06:20:27;;;;;;;2.60;1.15;;;15.10;81.50;;;;;;10538355;28;20066;-64
2022/06/03 06:25:37;;;;;;;2.97;1.58;;;15.10;81.50;;;;;;10538147;28;20031;-61
2022/06/03 06:30:58;;;;;;;2.67;1.45;;;15.10;81.40;;;;;;10538058;28;20036;-61
2022/06/03 06:36:50;;;;;;;1.85;1.30;;;15.10;81.40;;;;;;10537845;28;20035;-59
2022/06/03 06:42:15;;;;;;;2.25;1.40;;;15.20;81.50;;;;;;10522843;28;20496;-59
2022/06/03 06:47:28;;;;;;;1.77;1.45;;;15.20;81.50;;;;;;10537562;28;20101;-64
2022/06/03 06:52:46;;;;;;;1.88;1.60;;;15.20;81.90;;;;;;10537807;28;20032;-61
2022/06/03 06:57:50;;;;;;;2.13;1.60;;;15.20;81.40;;;;;;10537235;28;20032;-58
2022/06/03 07:03:00;;;;;;;3.47;1.52;;;15.30;81.40;;;;;;10534641;28;20043;-60
2022/06/03 07:08:09;;;;;;;1.63;1.20;;;15.30;81.40;;;;;;10536192;28;20036;-62
2022/06/03 07:13:23;;;;;;;2.20;1.40;;;15.30;81.40;;;;;;10536488;28;20040;-60
2022/06/03 07:24:07;;;;;;;1.92;1.30;;;15.40;81.50;;;;;;10536072;28;20036;-58
2022/06/03 07:29:17;;;;;;;2.75;1.40;;;15.40;81.40;;;;;;10536038;28;20065;-59
2022/06/03 07:34:29;;;;;;;1.55;1.25;;;15.40;81.40;;;;;;10535937;28;20366;-59
2022/06/03 07:39:48;;;;;;;1.33;1.20;;;15.40;81.40;;;;;;10535983;28;20036;-59
2022/06/03 07:44:55;;;;;;;2.60;1.23;;;15.50;81.60;;;;;;10536046;28;20052;-63
2022/06/03 07:50:01;;;;;;;3.40;1.42;;;15.50;81.30;;;;;;10535627;28;20123;-59
2022/06/03 07:55:10;;;;;;;1.73;1.38;;;15.60;81.40;;;;;;10534307;28;20109;-62
2022/06/03 08:00:15;;;;;;;2.08;1.65;;;15.60;81.40;;;;;;10535755;28;20089;-63
2022/06/03 08:05:19;;;;;;;2.78;1.55;;;15.70;81.40;;;;;;10534277;28;20028;-59
2022/06/03 08:15:57;;;;;;;1.50;1.40;;;15.70;81.30;;;;;;10535186;28;20060;-60
2022/06/03 08:21:03;;;;;;;4.18;1.80;;;15.80;81.40;;;;;;10543285;28;20037;-59
2022/06/03 08:26:12;;;;;;;3.72;1.60;;;15.80;81.30;;;;;;10542774;28;20361;-62
2022/06/03 08:31:13;;;;;;;1.52;1.40;;;15.90;81.30;;;;;;10543258;28;20110;-64
2022/06/03 08:36:22;;;;;;;2.17;1.60;;;16.00;81.20;;;;;;10542525;28;20036;-61
2022/06/03 08:41:28;;;;;;;2.28;1.50;;;16.00;81.30;;;;;;10539983;28;20042;-62
2022/06/03 08:46:35;;;;;;;2.50;1.50;;;16.10;81.20;;;;;;10542039;28;20036;-58
2022/06/03 08:51:47;;;;;;;2.55;1.65;;;16.10;81.20;;;;;;10542184;28;20405;-59
2022/06/03 08:56:51;;;;;;;2.15;1.67;;;16.20;81.30;;;;;;10540689;28;20230;-62
2022/06/03 09:02:04;;;;;;;3.05;1.60;;;16.20;81.20;;;;;;10541750;28;20457;-64
2022/06/03 09:07:36;;;;;;;2.50;1.60;;;16.20;81.20;;;;;;10541110;28;20493;-59
2022/06/03 09:12:40;;;;;;;3.72;1.70;;;16.30;81.40;;;;;;10541094;28;20020;-60
2022/06/03 09:18:03;;;;;;;3.72;1.67;;;16.40;81.20;;;;;;10541013;28;20032;-62
2022/06/03 09:23:08;;;;;;;2.17;1.60;;;16.40;81.30;;;;;;10540709;28;20032;-60
2022/06/03 09:28:15;;;;;;;1.95;1.60;;;16.50;81.20;;;;;;10539228;28;20373;-57
2022/06/03 09:33:20;;;;;;;2.85;1.70;;;16.50;81.20;;;;;;10540104;28;20032;-58
2022/06/03 09:38:25;;;;;;;5.40;2.20;;;16.60;81.10;;;;;;10539594;28;20484;-58
2022/06/03 09:43:33;;;;;;;2.05;1.63;;;16.60;81.10;;;;;;10539506;28;20048;-60
2022/06/03 09:48:36;;;;;;;;;;;16.70;81.20;;;;;;10539601;28;20044;-59
2022/06/03 09:53:42;;;;;;;2.17;1.77;;;16.70;81.30;;;;;;10539643;28;19908;-58
2022/06/03 09:58:44;;;;;;;2.53;1.92;;;16.70;80.90;;;;;;10539021;28;20028;-59
2022/06/03 10:03:45;;;;;;;3.42;1.70;;;16.80;81.50;;;;;;10539136;28;20048;-57
2022/06/03 10:14:05;;;;;;;1.88;1.58;;;16.90;80.90;;;;;;10537322;28;20035;-59
2022/06/03 10:19:06;;;;;;;1.45;1.35;;;17.00;80.80;;;;;;10538477;28;20047;-57
2022/06/03 10:24:07;;;;;;;2.50;1.63;;;17.10;80.80;;;;;;10538785;28;20033;-57
2022/06/03 10:29:13;;;;;;;3.17;1.60;;;17.20;80.60;;;;;;10537840;28;20175;-57
2022/06/03 10:34:18;;;;;;;2.25;1.90;;;17.30;80.60;;;;;;10538066;28;20028;-58
2022/06/03 10:39:20;;;;;;;3.33;1.75;;;17.30;80.50;;;;;;10536850;28;20036;-62
2022/06/03 10:44:28;;;;;;;2.25;1.52;;;17.40;80.30;;;;;;10535683;28;20040;-59
2022/06/03 10:49:32;;;;;;;1.80;1.52;;;17.50;80.30;;;;;;10535522;28;20044;-58
2022/06/03 11:05:35;;;;;;;2.78;1.52;;;17.70;80.20;;;;;;10535264;28;20078;-60
2022/06/03 11:10:45;;;;;;;2.72;1.60;;;17.70;80.10;;;;;;10534763;28;20046;-58
2022/06/03 11:15:48;;;;;;;1.67;1.45;;;17.80;80.00;;;;;;10534822;28;20032;-62
2022/06/03 11:20:50;;;;;;;1.80;1.70;;;17.90;80.00;;;;;;10534649;28;20040;-59
2022/06/03 11:26:00;;;;;;;2.00;1.70;;;17.90;79.90;;;;;;10534373;28;20028;-58
2022/06/03 11:31:21;;;;;;;2.63;1.73;;;18.00;79.90;;;;;;10534183;28;20487;-58
2022/06/03 11:36:51;;;;;;;2.05;1.77;;;18.10;79.80;;;;;;10529968;28;20046;-61
2022/06/03 11:42:16;;;;;;;2.55;1.75;;;18.10;79.70;;;;;;10533959;28;20389;-64
2022/06/03 11:47:42;;;;;;;2.40;1.55;;;18.20;79.60;;;;;;10533943;28;20131;-59
2022/06/03 11:52:42;;;;;;;2.63;2.10;;;18.20;79.70;;;;;;10533721;28;20050;-58
2022/06/03 11:58:11;;;;;;;1.80;1.70;;;18.30;79.60;;;;;;10543373;28;20036;-61
2022/06/03 12:03:35;;;;;;;3.28;1.80;;;18.40;79.50;;;;;;10540807;28;20028;-61
2022/06/03 12:09:00;;;;;;;3.15;1.67;;;18.50;79.80;;;;;;10543640;28;20047;-65
2022/06/03 12:14:27;;;;;;;1.98;1.50;;;18.60;80.00;;;;;;10543683;28;20039;-65
2022/06/03 12:19:42;;;;;;;2.55;1.65;;;18.70;79.40;;;;;;10543466;28;20394;-60
2022/06/03 12:24:46;;;;;;;1.77;1.67;;;18.80;79.30;;;;;;10542905;28;20032;-60
2022/06/03 12:30:13;;;;;;;1.50;1.40;;;18.90;79.20;;;;;;10542774;28;20043;-62
2022/06/03 12:35:42;;;;;;;2.78;1.52;;;18.90;79.20;;;;;;10539044;28;20036;-59
2022/06/03 12:40:42;;;;;;;1.70;1.60;;;19.00;79.20;;;;;;10542461;28;20078;-62
2022/06/03 12:46:07;;;;;;;1.83;1.73;;;19.10;79.00;;;;;;10524401;28;20044;-61
2022/06/03 12:51:11;;;;;;;2.00;1.60;;;19.20;79.00;;;;;;10541903;28;20396;-60
2022/06/03 12:56:30;;;;;;;4.10;2.10;;;19.20;79.10;;;;;;10541725;28;20109;-62
2022/06/03 13:01:53;;;;;;;;;;;19.30;78.20;;;;;;10541791;28;20046;-63
2022/06/03 13:07:25;;;;;;;3.42;2.40;;;20.10;75.00;;;;;;10493624;28;19912;-70
2022/06/03 13:12:29;;;;;;;6.45;3.22;;;20.90;72.90;;;;;;10536418;28;20057;-61
2022/06/03 13:18:18;;;;;;;5.80;2.30;;;21.20;70.60;;;;;;10541567;28;20036;-69
2022/06/03 13:23:51;;;;;;;3.13;2.30;;;21.50;69.60;;;;;;10541989;28;20024;-78
2022/06/03 13:28:57;;;;;;;3.10;2.40;;;21.80;68.40;;;;;;10540928;28;20093;-65
2022/06/03 13:34:10;;;;;;;5.70;2.40;;;22.00;69.10;;;;;;10522260;28;20036;-70
2022/06/03 13:39:18;;;;;;;3.47;2.22;;;22.20;68.20;;;;;;10540095;28;20440;-68
2022/06/03 13:44:19;;;;;;;3.78;2.15;;;22.30;68.10;;;;;;10539119;28;20131;-66
2022/06/03 13:49:25;;;;;;;3.63;2.20;;;22.40;67.50;;;;;;10539666;28;20127;-74
2022/06/03 13:54:41;;;;;;;2.47;2.08;;;22.50;66.60;;;;;;10539611;28;20059;-63
2022/06/03 13:59:43;;;;;;;2.70;2.20;;;22.70;65.30;;;;;;10539627;28;20427;-67
2022/06/03 14:04:54;;;;;;;2.00;1.80;;;22.70;66.40;;;;;;10538911;28;20130;-69
2022/06/03 14:10:04;;;;;;;4.07;2.03;;;22.60;64.90;;;;;;10538529;28;20032;-69
2022/06/03 14:15:38;;;;;;;2.75;2.00;;;22.70;64.20;;;;;;10536428;28;20036;-64
2022/06/03 14:20:49;;;;;;;3.05;1.58;;;22.80;63.00;;;;;;10537525;28;20470;-63
2022/06/03 14:26:01;;;;;;;2.13;1.85;;;22.90;63.60;;;;;;10538490;28;20431;-69
2022/06/03 14:31:20;;;;;;;2.63;1.75;;;23.10;61.90;;;;;;10537805;28;20024;-63
2022/06/03 14:36:24;;;;;;;2.15;1.95;;;23.10;62.90;;;;;;10538866;28;20407;-70
2022/06/03 14:41:30;;;;;;;1.95;1.75;;;23.20;63.30;;;;;;10538708;28;20047;-68
2022/06/03 14:46:35;;;;;;;3.10;1.70;;;23.10;62.10;;;;;;10539890;28;20521;-62
2022/06/03 14:51:50;;;;;;;3.45;1.80;;;23.20;62.00;;;;;;10538750;28;20059;-63
2022/06/03 14:56:55;;;;;;;3.15;1.60;;;23.50;61.50;;;;;;10538820;28;20572;-68
2022/06/03 15:02:33;;;;;;;3.53;1.90;;;23.50;61.30;;;;;;10538437;28;20020;-65
2022/06/03 15:07:36;;;;;;;2.08;1.70;;;23.50;59.90;;;;;;10538496;28;20093;-64
2022/06/03 15:12:37;;;;;;;2.17;1.77;;;23.50;61.00;;;;;;10538164;28;20062;-61
2022/06/03 15:17:38;;;;;;;2.58;1.80;;;23.40;61.20;;;;;;10540295;28;20109;-61
2022/06/03 15:22:53;;;;;;;4.65;2.20;;;23.40;61.20;;;;;;10545012;28;20040;-63
2022/06/03 15:27:57;;;;;;;3.05;1.80;;;23.40;60.60;;;;;;10543390;28;20048;-82
2022/06/03 15:32:58;;;;;;;2.92;2.00;;;23.20;61.00;;;;;;10541009;28;20028;-62
2022/06/03 15:38:01;;;;;;;2.63;1.80;;;23.10;61.10;;;;;;10542912;28;20036;-63
2022/06/03 15:43:07;;;;;;;1.80;1.58;;;22.70;61.20;;;;;;10539780;28;20036;-74
2022/06/03 15:48:16;;;;;;;4.50;2.25;;;22.60;61.70;;;;;;10540719;28;20466;-68
2022/06/03 15:53:23;;;;;;;2.67;1.70;;;22.40;61.60;;;;;;10538580;28;20029;-77
2022/06/03 15:58:40;;;;;;;3.87;1.60;;;22.30;62.20;;;;;;10539649;28;20372;-67
2022/06/03 16:04:08;;;;;;;2.30;2.10;;;22.30;62.30;;;;;;10517543;28;20036;-64
2022/06/03 16:09:21;;;;;;;2.08;1.88;;;22.20;62.80;;;;;;10535435;28;20050;-68
2022/06/03 16:14:27;;;;;;;5.18;1.90;;;22.00;63.50;;;;;;10538763;28;20400;-63
2022/06/03 16:19:43;;;;;;;2.65;1.70;;;22.00;63.20;;;;;;10522896;28;20039;-71
2022/06/03 16:24:44;;;;;;;3.00;1.30;;;21.80;63.20;;;;;;10538794;28;20587;-66
2022/06/03 16:30:06;;;;;;;1.42;1.25;;;21.50;64.60;;;;;;10536478;28;20127;-66
2022/06/03 16:35:21;;;;;;;4.13;1.50;;;21.20;65.20;;;;;;10539434;28;20028;-71
2022/06/03 16:40:39;;;;;;;3.03;1.50;;;21.00;65.90;;;;;;10544045;28;20448;-65
2022/06/03 16:46:21;;;;;;;3.08;1.30;;;20.80;66.40;;;;;;10542382;28;20040;-60
2022/06/03 16:51:32;;;;;;;3.95;1.48;;;21.00;67.10;;;;;;10542257;28;20044;-63
2022/06/03 16:56:35;;;;;;;4.30;1.42;;;21.10;67.20;;;;;;10542577;28;20024;-62
2022/06/03 17:01:40;;;;;;;2.85;1.20;;;21.20;67.40;;;;;;10542016;28;20028;-60
2022/06/03 17:06:53;;;;;;;1.75;0.90;;;21.40;67.80;;;;;;10541345;28;20235;-61
2022/06/03 17:11:56;;;;;;;2.55;1.00;;;21.40;68.20;;;;;;10523567;28;20053;-63
2022/06/03 17:17:06;;;;;;;1.80;1.23;;;21.50;68.30;;;;;;10541145;28;20557;-64
2022/06/03 17:22:40;;;;;;;1.70;1.60;;;21.50;68.70;;;;;;10541184;28;20035;-77
2022/06/03 17:27:44;;;;;;;2.80;2.20;;;21.00;67.40;;;;;;10529700;28;20052;-62
2022/06/03 17:32:57;;;;;;;3.10;2.20;;;20.30;68.20;;;;;;10540581;28;20035;-60
2022/06/03 17:38:16;;;;;;;2.45;1.90;;;20.20;69.00;;;;;;10540448;28;20024;-62
2022/06/03 17:43:25;;;;;;;3.53;2.63;;;20.40;69.40;;;;;;10539800;28;20408;-64
2022/06/03 17:48:44;;;;;;;3.13;2.33;;;20.60;69.70;;;;;;10539157;28;20093;-60
2022/06/03 17:59:25;;;;;;;3.88;1.98;;;20.80;70.10;;;;;;10538901;28;20028;-60
2022/06/03 18:05:05;;;;;;;2.67;2.10;;;20.90;70.60;;;;;;10539343;28;20044;-60
2022/06/03 18:10:24;;;;;;;3.78;2.20;;;20.90;71.00;;;;;;10538524;28;20509;-60
2022/06/03 18:15:29;;;;;;;4.05;2.03;;;20.90;70.70;;;;;;10538578;28;20032;-60
2022/06/03 18:21:05;;;;;;;2.10;1.90;;;20.90;70.80;;;;;;10538837;28;20039;-59
2022/06/03 18:26:50;;;;;;;3.25;1.83;;;20.90;71.10;;;;;;10538202;28;20381;-60
2022/06/03 18:32:12;;;;;;;3.38;1.92;;;20.90;71.40;;;;;;10538098;28;20432;-60
2022/06/03 18:37:41;;;;;;;2.67;1.60;;;20.80;71.50;;;;;;10537803;28;20032;-62
2022/06/03 18:43:03;;;;;;;6.03;1.83;;;20.80;71.50;;;;;;10536176;28;20052;-63
2022/06/03 18:48:25;;;;;;;2.10;1.50;;;20.70;71.70;;;;;;10537534;28;20051;-64
2022/06/03 18:53:50;;;;;;;2.70;1.90;;;20.70;71.90;;;;;;10537052;28;20438;-61
2022/06/03 18:59:01;;;;;;;3.35;1.60;;;20.60;72.20;;;;;;10537274;28;20051;-61
2022/06/03 19:04:44;;;;;;;4.07;1.83;;;20.60;72.10;;;;;;10536503;28;20043;-64
2022/06/03 19:10:06;;;;;;;3.38;1.80;;;20.60;72.40;;;;;;10536865;28;20055;-60
2022/06/03 19:15:09;;;;;;;2.95;1.30;;;20.50;72.40;;;;;;10536312;28;20080;-63
2022/06/03 19:20:25;;;;;;;2.45;1.50;;;20.50;72.50;;;;;;10536546;28;20060;-63
2022/06/03 19:25:35;;;;;;;3.33;1.52;;;20.50;72.90;;;;;;10536274;28;20028;-63
2022/06/03 19:30:36;;;;;;;3.08;1.65;;;20.40;72.80;;;;;;10535757;28;20044;-63
2022/06/03 19:35:49;;;;;;;1.80;1.50;;;20.30;73.00;;;;;;10536146;28;20400;-64
2022/06/03 19:40:50;;;;;;;3.67;1.60;;;20.30;73.20;;;;;;10535360;28;20056;-62
2022/06/03 19:46:06;;;;;;;2.15;1.60;;;20.20;73.20;;;;;;10535689;28;20032;-64
2022/06/03 19:51:43;;;;;;;2.28;1.73;;;20.20;73.40;;;;;;10535488;28;20056;-64
2022/06/03 19:56:48;;;;;;;2.55;2.35;;;20.10;73.70;;;;;;10535587;28;20036;-65
2022/06/03 20:01:54;;;;;;;2.15;1.90;;;20.10;73.60;;;;;;10535507;28;20032;-63
2022/06/03 20:07:01;;;;;;;4.20;2.10;;;20.00;73.70;;;;;;10535204;28;20048;-61
2022/06/03 20:17:30;;;;;;;2.70;2.25;;;20.00;73.90;;;;;;10543484;28;20024;-64
2022/06/03 20:22:43;;;;;;;2.25;2.05;;;19.90;74.00;;;;;;10543108;28;20065;-61
2022/06/03 20:27:44;;;;;;;2.95;2.20;;;19.90;74.20;;;;;;10542955;28;20089;-64
2022/06/03 20:33:05;;;;;;;4.85;2.00;;;19.80;74.10;;;;;;10542483;28;20024;-59
2022/06/03 20:38:31;;;;;;;2.38;1.95;;;19.70;74.10;;;;;;10538343;28;20032;-60
2022/06/03 20:43:41;;;;;;;2.72;2.10;;;19.60;74.20;;;;;;10542140;28;20518;-60
2022/06/03 20:48:53;;;;;;;1.98;1.77;;;19.60;74.30;;;;;;10542054;28;20054;-64
2022/06/03 20:53:59;;;;;;;2.30;1.55;;;19.60;74.30;;;;;;10541776;28;20032;-64
2022/06/03 20:59:18;;;;;;;2.05;1.80;;;19.50;74.20;;;;;;10541871;28;20031;-61
2022/06/03 21:14:58;;;;;;;3.67;2.60;;;19.30;74.30;;;;;;10541144;28;20031;-63
2022/06/03 21:20:02;;;;;;;3.03;2.22;;;19.30;74.50;;;;;;10541052;28;20183;-63
2022/06/03 21:25:04;;;;;;;2.70;2.50;;;19.20;74.70;;;;;;10540817;28;20043;-60
2022/06/03 21:30:06;;;;;;;3.42;2.13;;;19.20;74.80;;;;;;10540463;28;20044;-60
2022/06/03 21:35:35;;;;;;;2.47;2.25;;;19.20;75.00;;;;;;10540458;28;20036;-63
2022/06/03 21:40:53;;;;;;;3.33;2.08;;;19.10;75.20;;;;;;10540214;28;20056;-64
2022/06/03 21:46:12;;;;;;;3.38;2.45;;;19.10;75.20;;;;;;10540122;28;20079;-59
2022/06/03 21:51:39;;;;;;;2.90;2.28;;;19.10;75.20;;;;;;10540041;28;20442;-64
2022/06/03 21:56:48;;;;;;;3.67;2.20;;;19.00;75.40;;;;;;10539657;28;20059;-64
2022/06/03 22:01:50;;;;;;;4.65;2.20;;;18.90;75.40;;;;;;10539473;28;20131;-62
2022/06/03 22:06:54;;;;;;;3.65;2.10;;;18.90;75.40;;;;;;10539324;28;20044;-61
2022/06/03 22:17:14;;;;;;;3.28;2.40;;;18.80;75.70;;;;;;10538961;28;20094;-61
2022/06/03 22:22:15;;;;;;;2.58;2.17;;;18.70;75.80;;;;;;10539011;28;20081;-59
2022/06/03 22:27:25;;;;;;;2.97;2.00;;;18.70;75.90;;;;;;10538399;28;20465;-62
2022/06/03 22:32:37;;;;;;;3.90;2.13;;;18.70;76.10;;;;;;10536719;28;20388;-63
2022/06/03 22:43:42;;;;;;;2.78;2.17;;;18.60;76.40;;;;;;10534453;28;20056;-64
2022/06/03 22:48:42;;;;;;;3.05;2.05;;;18.60;76.40;;;;;;10537696;28;20512;-59
2022/06/03 22:53:44;;;;;;;2.70;1.98;;;18.50;76.40;;;;;;10519320;28;20036;-64
2022/06/03 22:58:49;;;;;;;3.80;2.03;;;18.40;76.40;;;;;;10537767;28;20033;-61
2022/06/03 23:03:50;;;;;;;3.92;2.30;;;18.40;76.50;;;;;;10537288;28;20111;-60
2022/06/03 23:08:50;;;;;;;2.40;2.20;;;18.40;76.60;;;;;;10537038;28;20135;-62
2022/06/03 23:13:51;;;;;;;2.92;2.13;;;18.30;76.70;;;;;;10519164;28;20032;-64
2022/06/03 23:18:52;;;;;;;3.10;2.30;;;18.30;76.70;;;;;;10536615;28;20111;-63
2022/06/03 23:23:53;;;;;;;2.92;2.20;;;18.30;76.90;;;;;;10536486;28;20039;-64
2022/06/03 23:28:54;;;;;;;3.20;2.20;;;18.20;76.90;;;;;;10536285;28;20052;-61
2022/06/03 23:33:56;;;;;;;2.92;2.20;;;18.20;76.90;;;;;;10536540;28;20036;-65
2022/06/03 23:38:57;;;;;;;3.10;2.30;;;18.20;77.00;;;;;;10536396;28;20414;-65
2022/06/03 23:49:22;;;;;;;2.47;2.22;;;18.10;77.10;;;;;;10535026;28;20079;-61
2022/06/03 23:54:23;;;;;;;3.92;2.33;;;18.10;77.20;;;;;;10535940;28;20485;-65
2022/06/03 23:59:24;;;;;;;2.75;2.20;;;18.00;77.20;;;;;;10517942;28;20059;-59
